Time;durP1;ratioP1;P1;durP2;ratioP2;P2;SDS_P1;SDS_P2;PMS_P1;PMS_P2;Temp;Humidity;BMP_temperature;BMP_pressure;BME280_temperature;BME280_humidity;BME280_pressure;Samples;Min_cycle;Max_cycle;Signal;HPM_P1;HPM_P2
2021/01/21 00:02:19;;;;;;;115.25;51.98;;;;;;;-11.14;55.17;101761.20;1721494;83;21251;-62
2021/01/21 00:05:26;;;;;;;115.88;51.37;;;;;;;-11.40;55.00;101758.25;1721585;83;21369;-62
2021/01/21 00:08:32;;;;;;;113.57;52.35;;;;;;;-11.59;55.41;101756.09;1715735;83;21211;-61
2021/01/21 00:11:39;;;;;;;109.57;49.98;;;;;;;-11.58;55.78;101745.09;1714283;82;21369;-62
2021/01/21 00:14:44;;;;;;;116.82;52.35;;;;;;;-11.52;56.07;101736.72;1714298;83;21406;-61
2021/01/21 00:17:51;;;;;;;100.35;42.58;;;;;;;-11.41;56.33;101740.19;1768579;80;21193;-62
2021/01/21 00:20:57;;;;;;;116.65;52.40;;;;;;;-11.24;56.40;101725.59;1768501;81;21793;-61
2021/01/21 00:24:04;;;;;;;118.28;50.58;;;;;;;-11.22;56.37;101727.33;1768529;81;21260;-61
2021/01/21 00:27:08;;;;;;;105.30;48.50;;;;;;;-11.08;56.59;101727.23;1768516;81;21223;-61
2021/01/21 00:30:18;;;;;;;110.63;49.23;;;;;;;-10.94;56.58;101717.49;1721629;83;21420;-61
2021/01/21 00:33:23;;;;;;;114.95;49.58;;;;;;;-10.82;56.63;101716.51;1768647;81;21210;-61
2021/01/21 00:36:29;;;;;;;112.20;46.35;;;;;;;-10.65;56.67;101704.06;1721330;83;21409;-61
2021/01/21 00:39:35;;;;;;;112.85;46.83;;;;;;;-10.54;56.47;101696.92;1721529;83;21377;-62
2021/01/21 00:42:41;;;;;;;107.87;46.33;;;;;;;-10.62;56.48;101708.00;1721600;83;21405;-62
2021/01/21 00:45:47;;;;;;;103.67;46.63;;;;;;;-10.60;56.63;101706.20;1693869;83;21239;-62
2021/01/21 00:48:53;;;;;;;100.30;46.08;;;;;;;-10.58;56.80;101706.64;1721440;83;21353;-61
2021/01/21 00:51:59;;;;;;;102.80;47.70;;;;;;;-10.42;56.91;101703.42;1768611;81;21290;-61
2021/01/21 00:55:04;;;;;;;101.78;44.45;;;;;;;-10.30;56.77;101712.56;1721701;83;21250;-60
2021/01/21 00:58:11;;;;;;;100.25;44.18;;;;;;;-10.31;56.46;101699.80;1721641;83;21382;-62
2021/01/21 01:01:17;;;;;;;108.67;49.50;;;;;;;-10.34;56.64;101701.15;1768663;81;21201;-61
2021/01/21 01:04:26;;;;;;;100.38;46.08;;;;;;;-10.28;56.81;101687.85;1723504;82;21365;-63
2021/01/21 01:07:33;;;;;;;100.78;46.33;;;;;;;-10.15;56.81;101692.58;1760737;80;21476;-61
2021/01/21 01:10:39;;;;;;;95.47;42.98;;;;;;;-10.04;56.69;101685.38;1765749;81;21218;-61
2021/01/21 01:13:49;;;;;;;100.72;44.05;;;;;;;-9.97;56.47;101677.81;1765532;81;21777;-62
2021/01/21 01:16:55;;;;;;;101.78;45.23;;;;;;;-9.99;56.21;101680.91;1765783;81;21162;-61
2021/01/21 01:20:03;;;;;;;95.47;46.05;;;;;;;-10.05;56.22;101680.52;1765688;81;21198;-61
2021/01/21 01:23:07;;;;;;;97.53;45.28;;;;;;;-10.10;56.21;101683.69;1765730;81;21199;-61
2021/01/21 01:26:13;;;;;;;97.25;42.33;;;;;;;-10.12;56.18;101672.70;1765694;81;21225;-62
2021/01/21 01:29:20;;;;;;;81.28;37.38;;;;;;;-10.14;56.29;101673.14;1765736;81;21423;-60
2021/01/21 01:32:26;;;;;;;93.97;42.10;;;;;;;-10.10;56.36;101662.50;1765728;81;21194;-61
2021/01/21 01:35:32;;;;;;;99.92;46.90;;;;;;;-10.08;56.17;101661.16;1765761;81;21272;-61
2021/01/21 01:38:39;;;;;;;101.27;46.60;;;;;;;-10.09;56.22;101671.34;1765906;81;21253;-60
2021/01/21 01:41:49;;;;;;;96.02;45.12;;;;;;;-10.05;56.28;101676.54;1765622;81;21187;-61
2021/01/21 01:44:54;;;;;;;104.55;46.95;;;;;;;-9.91;56.25;101677.27;1766422;81;21229;-61
2021/01/21 01:48:01;;;;;;;96.95;43.73;;;;;;;-9.84;55.92;101688.67;1765540;81;21435;-61
2021/01/21 01:51:11;;;;;;;103.22;44.98;;;;;;;-9.88;55.84;101683.00;1765857;81;21285;-61
2021/01/21 01:54:17;;;;;;;100.80;46.28;;;;;;;-9.91;55.95;101683.89;1776394;80;21226;-60
2021/01/21 01:57:24;;;;;;;99.00;45.73;;;;;;;-9.88;56.21;101672.40;1776449;80;21412;-60
2021/01/21 02:00:33;;;;;;;97.42;43.68;;;;;;;-9.73;56.21;101666.47;1776343;81;21375;-61
2021/01/21 02:03:39;;;;;;;98.78;45.23;;;;;;;-9.57;56.10;101672.45;1765634;81;21297;-61
2021/01/21 02:06:52;;;;;;;100.25;43.25;;;;;;;-9.54;55.95;101666.67;1766211;80;21209;-61
2021/01/21 02:09:59;;;;;;;105.67;47.65;;;;;;;-9.46;55.87;101661.27;1759792;80;21212;-61
2021/01/21 02:13:38;;;;;;;107.32;46.90;;;;;;;-9.41;55.67;101659.44;1699955;83;21252;-61
2021/01/21 02:17:06;;;;;;;92.47;42.73;;;;;;;-9.41;55.67;101659.44;1713064;84;21417;-61
2021/01/21 02:20:25;;;;;;;109.78;46.88;;;;;;;-9.32;55.48;101665.50;1731121;82;21219;-61
2021/01/21 02:24:14;;;;;;;107.63;47.25;;;;;;;-9.38;55.25;101659.39;1712943;83;21347;-63
2021/01/21 02:27:19;;;;;;;96.00;42.73;;;;;;;-9.56;55.38;101666.28;1729029;81;21234;-61
2021/01/21 02:30:58;;;;;;;111.97;47.75;;;;;;;-9.57;55.62;101655.23;1713974;83;21287;-61
2021/01/21 02:34:06;;;;;;;103.35;47.73;;;;;;;-9.52;55.79;101648.99;1765881;81;21289;-61
2021/01/21 02:37:11;;;;;;;109.55;46.42;;;;;;;-9.47;55.85;101644.52;1718692;83;21428;-61
2021/01/21 02:40:19;;;;;;;113.00;49.30;;;;;;;-9.48;55.70;101651.16;1718856;83;21936;-61
2021/01/21 02:43:29;;;;;;;111.50;52.05;;;;;;;-9.45;55.94;101644.49;1765776;81;21510;-61
2021/01/21 02:46:34;;;;;;;110.22;48.60;;;;;;;-9.33;55.79;101652.27;1718504;83;21349;-61
2021/01/21 02:49:39;;;;;;;106.70;47.60;;;;;;;-9.27;55.79;101649.99;1718501;83;21314;-61
2021/01/21 02:53:01;;;;;;;104.90;48.13;;;;;;;-9.20;55.60;101643.25;1765861;81;21288;-61
2021/01/21 02:56:11;;;;;;;117.35;50.30;;;;;;;-9.15;55.54;101641.85;1718535;83;21385;-62
2021/01/21 02:59:21;;;;;;;104.50;47.53;;;;;;;-9.15;55.54;101634.78;1718643;83;21365;-62
2021/01/21 03:02:27;;;;;;;113.28;50.48;;;;;;;-9.19;55.24;101639.69;1718620;83;21180;-61
2021/01/21 03:05:34;;;;;;;119.10;50.73;;;;;;;-9.36;55.30;101647.01;1765983;81;21206;-61
2021/01/21 03:08:39;;;;;;;108.22;49.23;;;;;;;-9.44;55.64;101639.17;1718666;83;21791;-61
2021/01/21 03:11:47;;;;;;;119.80;52.48;;;;;;;-9.43;55.86;101646.65;1722327;82;21238;-61
2021/01/21 03:14:52;;;;;;;113.17;48.63;;;;;;;-9.41;56.07;101641.77;1768760;80;21588;-61
2021/01/21 03:18:00;;;;;;;119.57;50.50;;;;;;;-9.33;56.15;101639.01;1722865;82;21246;-62
2021/01/21 03:21:06;;;;;;;109.48;49.98;;;;;;;-9.22;56.29;101639.73;1722231;83;21286;-62
2021/01/21 03:24:15;;;;;;;104.43;46.83;;;;;;;-9.09;56.22;101629.82;1761032;81;21352;-61
2021/01/21 03:27:23;;;;;;;125.70;52.80;;;;;;;-9.01;56.15;101636.77;1760863;81;21195;-61
2021/01/21 03:30:30;;;;;;;113.88;51.42;;;;;;;-9.06;55.88;101633.31;1761140;81;21384;-61
2021/01/21 03:33:36;;;;;;;111.88;50.45;;;;;;;-8.99;56.11;101645.59;1760843;81;21372;-61
2021/01/21 03:36:41;;;;;;;118.37;51.40;;;;;;;-8.89;55.96;101639.66;1761117;81;21247;-62
2021/01/21 03:39:47;;;;;;;117.45;52.00;;;;;;;-8.77;56.03;101643.03;1760808;81;21310;-62
2021/01/21 03:42:54;;;;;;;100.20;46.33;;;;;;;-8.69;56.16;101630.95;1760871;81;21425;-62
2021/01/21 03:46:09;;;;;;;104.63;49.00;;;;;;;-8.69;56.16;101630.95;1761141;80;21191;-62
2021/01/21 03:49:16;;;;;;;107.47;48.40;;;;;;;-8.67;56.05;101628.69;1761132;81;21356;-61
2021/01/21 03:52:25;;;;;;;106.52;48.15;;;;;;;-8.57;56.32;101630.30;1761040;81;22196;-61
2021/01/21 03:55:33;;;;;;;99.05;45.10;;;;;;;-8.55;56.26;101632.48;1761707;80;21226;-62
2021/01/21 03:58:39;;;;;;;101.33;45.28;;;;;;;-8.55;56.26;101632.48;1731920;81;21212;-61
2021/01/21 04:01:45;;;;;;;105.92;46.48;;;;;;;-8.41;56.82;101628.24;1716277;83;21370;-60
2021/01/21 04:04:52;;;;;;;93.33;43.80;;;;;;;-8.35;56.51;101635.64;1768077;81;21212;-60
2021/01/21 04:07:59;;;;;;;108.85;46.63;;;;;;;-8.35;56.51;101635.64;1729353;82;21307;-63
2021/01/21 04:11:06;;;;;;;106.22;49.55;;;;;;;-8.30;56.41;101629.81;1705232;80;21316;-61
2021/01/21 04:14:13;;;;;;;109.60;51.18;;;;;;;-8.25;56.43;101623.08;1765424;81;21358;-61
2021/01/21 04:17:20;;;;;;;109.30;45.70;;;;;;;-8.26;56.31;101620.87;1765651;81;21350;-62
2021/01/21 04:20:27;;;;;;;96.65;42.58;;;;;;;-8.30;56.22;101623.61;1765452;81;21233;-61
2021/01/21 04:23:33;;;;;;;94.13;43.17;;;;;;;-8.43;56.38;101622.08;1766154;81;21343;-61
2021/01/21 04:26:41;;;;;;;101.87;46.70;;;;;;;-8.51;56.68;101627.53;1765671;81;21342;-60
2021/01/21 04:29:48;;;;;;;103.47;45.43;;;;;;;-8.47;56.91;101619.95;1765487;81;21243;-60
2021/01/21 04:32:55;;;;;;;107.17;49.03;;;;;;;-8.44;57.05;101623.87;1743432;81;21342;-61
2021/01/21 04:36:02;;;;;;;100.58;45.73;;;;;;;-8.42;57.02;101633.14;1765460;81;21732;-60
2021/01/21 04:39:08;;;;;;;103.80;49.93;;;;;;;-8.33;57.07;101641.81;1765364;81;21417;-60
2021/01/21 04:42:16;;;;;;;102.38;46.23;;;;;;;-8.22;57.11;101633.61;1765809;81;21244;-60
2021/01/21 04:45:25;;;;;;;103.40;48.52;;;;;;;-8.14;57.12;101640.54;1765409;81;21221;-60
2021/01/21 04:48:31;;;;;;;93.33;43.17;;;;;;;-8.06;57.00;101646.59;1765482;81;21370;-60
2021/01/21 04:51:38;;;;;;;93.80;43.58;;;;;;;-8.06;56.86;101645.27;1765392;81;21868;-61
2021/01/21 04:55:01;;;;;;;92.57;43.98;;;;;;;-8.11;56.83;101649.78;1765216;81;21674;-62
2021/01/21 04:58:39;;;;;;;95.97;43.95;;;;;;;-8.25;57.29;101646.98;1727676;81;21370;-61
2021/01/21 05:02:00;;;;;;;96.05;44.27;;;;;;;-8.25;57.29;101646.98;1715958;82;21233;-61
2021/01/21 05:05:08;;;;;;;94.37;44.15;;;;;;;-8.25;57.42;101656.27;1693632;83;21289;-61
2021/01/21 05:08:14;;;;;;;94.17;43.02;;;;;;;-8.21;57.61;101652.17;1717365;81;21386;-60
2021/01/21 05:11:26;;;;;;;104.45;47.27;;;;;;;-8.13;57.66;101655.56;1718692;80;21359;-60
2021/01/21 05:14:39;;;;;;;101.10;46.13;;;;;;;-8.06;57.52;101658.54;1660957;84;21333;-60
2021/01/21 05:17:49;;;;;;;109.22;47.27;;;;;;;-7.89;57.63;101660.41;1733958;81;21332;-61
2021/01/21 05:21:15;;;;;;;105.32;47.78;;;;;;;-7.89;57.63;101660.41;1710715;83;21807;-60
2021/01/21 05:24:38;;;;;;;105.52;51.10;;;;;;;-7.78;57.61;101663.73;1698679;82;21269;-61
2021/01/21 05:27:48;;;;;;;103.60;48.87;;;;;;;-7.63;57.71;101655.03;1729992;82;21247;-61
2021/01/21 05:31:12;;;;;;;108.50;49.20;;;;;;;-7.51;57.54;101649.45;1723201;82;21232;-61
2021/01/21 05:34:17;;;;;;;98.35;45.83;;;;;;;-7.32;57.52;101650.80;1705600;84;21263;-60
2021/01/21 05:37:29;;;;;;;94.97;45.80;;;;;;;-7.19;57.20;101650.52;1720811;82;21338;-60
2021/01/21 05:40:46;;;;;;;97.88;45.12;;;;;;;-7.14;57.15;101646.42;1727134;82;21717;-60
2021/01/21 05:43:58;;;;;;;111.72;50.80;;;;;;;-7.13;56.71;101642.39;1699028;83;21769;-60
2021/01/21 05:47:17;;;;;;;98.45;45.10;;;;;;;-7.09;57.02;101641.88;1738062;81;21606;-62
2021/01/21 05:50:23;;;;;;;107.35;50.58;;;;;;;-6.97;56.89;101629.61;1737182;82;21283;-61
2021/01/21 05:53:30;;;;;;;97.47;44.08;;;;;;;-6.99;56.58;101636.30;1757674;81;21469;-60
2021/01/21 05:56:37;;;;;;;101.20;48.20;;;;;;;-7.05;56.83;101635.56;1741090;79;21358;-61
2021/01/21 05:59:43;;;;;;;99.75;47.53;;;;;;;-7.02;56.98;101628.84;1679943;83;21213;-62
2021/01/21 06:02:54;;;;;;;104.07;48.73;;;;;;;-6.98;57.04;101642.06;1699736;83;21185;-61
2021/01/21 06:06:07;;;;;;;106.47;48.60;;;;;;;-6.99;56.95;101644.77;1767646;80;21766;-61
2021/01/21 06:09:17;;;;;;;103.65;49.75;;;;;;;-6.88;57.06;101646.72;1781082;79;21497;-62
2021/01/21 06:12:24;;;;;;;107.52;50.40;;;;;;;-6.82;57.10;101625.27;1762364;81;21422;-61
2021/01/21 06:15:30;;;;;;;107.03;48.08;;;;;;;-6.77;57.19;101626.04;1663552;83;21278;-61
2021/01/21 06:18:39;;;;;;;97.00;41.30;;;;;;;-6.67;57.18;101623.55;1701165;83;21215;-61
2021/01/21 06:22:17;;;;;;;101.00;47.75;;;;;;;-6.57;56.94;101635.73;1745896;81;21373;-61
2021/01/21 06:25:27;;;;;;;102.27;46.33;;;;;;;-6.72;56.69;101650.73;1755555;80;21381;-62
2021/01/21 06:28:34;;;;;;;104.75;44.90;;;;;;;-6.61;56.99;101643.39;1803659;79;21404;-62
2021/01/21 06:31:41;;;;;;;107.65;52.80;;;;;;;-6.57;56.77;101625.08;1803266;79;21330;-62
2021/01/21 06:34:47;;;;;;;91.02;44.65;;;;;;;-6.65;57.01;101623.06;1762926;81;21345;-61
2021/01/21 06:38:00;;;;;;;94.92;43.78;;;;;;;-6.64;57.21;101631.45;1768028;80;21820;-62
2021/01/21 06:41:05;;;;;;;94.77;44.15;;;;;;;-6.66;57.26;101617.34;1746192;81;21811;-62
2021/01/21 06:44:10;;;;;;;102.90;47.35;;;;;;;-6.75;57.40;101619.75;1712812;83;21214;-61
2021/01/21 06:47:20;;;;;;;92.80;43.58;;;;;;;-6.81;57.68;101615.92;1767511;81;21293;-61
2021/01/21 06:50:36;;;;;;;98.45;44.67;;;;;;;-6.79;58.01;101610.55;1762885;81;21207;-62
2021/01/21 06:53:42;;;;;;;110.60;50.63;;;;;;;-6.73;58.31;101611.73;1716791;82;21361;-62
2021/01/21 06:56:51;;;;;;;93.70;44.98;;;;;;;-6.65;58.30;101597.33;1770132;81;21981;-61
2021/01/21 07:00:01;;;;;;;113.20;50.05;;;;;;;-6.59;58.39;101597.17;1771802;80;21368;-61
2021/01/21 07:03:06;;;;;;;127.35;55.88;;;;;;;-6.46;58.63;101596.39;1712348;82;21912;-61
2021/01/21 07:06:12;;;;;;;84.10;41.33;;;;;;;-6.24;58.72;101596.23;1767123;81;21631;-67
2021/01/21 07:09:17;;;;;;;103.72;48.60;;;;;;;-6.00;58.50;101591.58;1766013;81;21361;-68
2021/01/21 07:12:24;;;;;;;96.70;43.40;;;;;;;-5.89;58.30;101596.59;1676684;83;21271;-67
2021/01/21 07:16:00;;;;;;;86.78;42.55;;;;;;;-5.75;58.18;101594.37;1714324;82;21541;-68
2021/01/21 07:19:03;;;;;;;80.07;37.98;;;;;;;-5.70;58.02;101584.00;1714014;83;21640;-67
2021/01/21 07:22:26;;;;;;;87.27;39.95;;;;;;;-5.61;57.98;101586.88;1766610;79;21175;-66
2021/01/21 07:25:40;;;;;;;86.08;41.37;;;;;;;-5.57;57.83;101601.84;1797014;79;21191;-68
2021/01/21 07:29:20;;;;;;;82.75;40.45;;;;;;;-5.54;57.90;101603.97;1790314;79;21227;-67
2021/01/21 07:32:35;;;;;;;78.67;38.17;;;;;;;-5.47;58.02;101601.52;1747698;82;21186;-67
2021/01/21 07:35:45;;;;;;;81.42;40.45;;;;;;;-5.34;58.02;101588.67;1747453;82;21199;-68
2021/01/21 07:38:56;;;;;;;82.70;40.48;;;;;;;-5.19;57.91;101589.11;1747868;82;21183;-69
2021/01/21 07:42:01;;;;;;;75.45;36.42;;;;;;;-5.13;57.78;101579.56;1748264;82;21561;-67
2021/01/21 07:45:15;;;;;;;86.37;42.25;;;;;;;-4.99;57.71;101584.00;1776507;79;21247;-69
2021/01/21 07:48:33;;;;;;;80.47;39.20;;;;;;;-4.87;57.80;101584.08;1782107;79;21921;-68
2021/01/21 07:51:40;;;;;;;84.85;43.38;;;;;;;-4.77;57.73;101579.70;1773148;79;21235;-69
2021/01/21 07:54:56;;;;;;;79.53;41.50;;;;;;;-4.63;57.63;101580.11;1738010;81;21216;-67
2021/01/21 07:58:01;;;;;;;72.97;38.13;;;;;;;-4.55;57.32;101579.00;1728976;82;21213;-67
2021/01/21 08:01:06;;;;;;;75.15;36.38;;;;;;;-4.52;57.36;101576.22;1720274;82;21230;-67
2021/01/21 08:04:14;;;;;;;89.30;41.18;;;;;;;-4.54;57.35;101580.28;1697585;82;21729;-68
2021/01/21 08:07:20;;;;;;;93.00;43.80;;;;;;;-4.53;57.41;101571.81;1711948;82;21745;-68
2021/01/21 08:10:32;;;;;;;81.05;38.50;;;;;;;-4.50;57.67;101574.38;1702252;81;21216;-66
2021/01/21 08:13:38;;;;;;;86.43;40.20;;;;;;;-4.43;57.54;101565.20;1673131;85;21244;-63
2021/01/21 08:16:44;;;;;;;78.92;40.20;;;;;;;-4.50;57.67;101558.34;1699141;80;21352;-60
2021/01/21 08:19:50;;;;;;;85.17;39.03;;;;;;;-4.48;57.72;101555.14;1699210;82;21221;-63
2021/01/21 08:23:13;;;;;;;88.12;40.55;;;;;;;-4.43;57.85;101559.86;1769021;80;21239;-64
2021/01/21 08:26:20;;;;;;;80.53;41.08;;;;;;;-4.44;57.79;101563.47;1718321;83;21856;-64
2021/01/21 08:29:26;;;;;;;77.40;38.58;;;;;;;-4.32;57.82;101562.58;1752071;81;21305;-64
2021/01/21 08:32:36;;;;;;;77.53;37.38;;;;;;;-4.21;57.94;101552.83;1776550;80;21352;-63
2021/01/21 08:35:52;;;;;;;75.92;36.20;;;;;;;-4.12;57.75;101551.19;1765907;80;21368;-69
2021/01/21 08:39:02;;;;;;;70.75;36.10;;;;;;;-4.09;57.90;101547.06;1767438;80;21629;-68
2021/01/21 08:42:10;;;;;;;70.05;36.73;;;;;;;-4.00;57.99;101548.06;1771440;81;21209;-68
2021/01/21 08:45:17;;;;;;;73.10;34.35;;;;;;;-4.02;58.03;101548.12;1761802;80;21380;-67
2021/01/21 08:48:41;;;;;;;63.55;33.42;;;;;;;-3.98;58.19;101547.55;1705219;84;21287;-64
2021/01/21 08:51:48;;;;;;;79.32;39.15;;;;;;;-3.92;58.35;101545.98;1716349;82;21405;-68
2021/01/21 08:55:01;;;;;;;74.05;36.98;;;;;;;-3.77;58.48;101554.75;1708089;83;21247;-68
2021/01/21 08:58:12;;;;;;;76.45;37.25;;;;;;;-3.51;58.32;101556.88;1707434;83;21291;-68
2021/01/21 09:01:20;;;;;;;76.33;37.53;;;;;;;-3.32;57.86;101546.32;1718806;81;21279;-67
2021/01/21 09:04:38;;;;;;;67.55;32.67;;;;;;;-3.15;57.70;101543.84;1752274;81;21273;-68
2021/01/21 09:07:43;;;;;;;71.50;34.55;;;;;;;-2.88;57.32;101540.05;1712608;83;21216;-68
2021/01/21 09:10:56;;;;;;;71.15;36.40;;;;;;;-2.76;56.81;101546.71;1706156;83;21241;-67
2021/01/21 09:14:01;;;;;;;70.95;36.03;;;;;;;-2.80;56.73;101536.58;1740511;81;21231;-68
2021/01/21 09:17:05;;;;;;;66.72;33.15;;;;;;;-2.78;56.80;101533.83;1754488;80;21515;-67
2021/01/21 09:20:30;;;;;;;69.80;34.20;;;;;;;-2.77;56.60;101519.48;1718026;81;21718;-69
2021/01/21 09:23:37;;;;;;;70.40;34.53;;;;;;;-2.76;56.80;101519.45;1719366;81;21266;-68
2021/01/21 09:26:43;;;;;;;74.27;35.30;;;;;;;-2.72;56.80;101523.73;1732829;82;21208;-69
2021/01/21 09:30:21;;;;;;;61.70;32.35;;;;;;;-2.65;56.76;101523.89;1736109;82;21216;-68
2021/01/21 09:33:27;;;;;;;64.30;33.65;;;;;;;-2.55;56.76;101520.36;1728726;81;21268;-69
2021/01/21 09:36:36;;;;;;;60.75;32.65;;;;;;;-2.49;56.87;101514.23;1708789;83;21310;-68
2021/01/21 09:39:42;;;;;;;69.20;35.90;;;;;;;-2.36;56.94;101516.80;1707921;82;21227;-70
2021/01/21 09:42:48;;;;;;;66.40;34.03;;;;;;;-2.27;56.95;101497.64;1705641;84;21290;-68
2021/01/21 09:45:54;;;;;;;63.83;34.70;;;;;;;-2.13;56.96;101480.92;1706701;83;21223;-67
2021/01/21 09:49:02;;;;;;;64.62;35.17;;;;;;;-2.17;56.70;101472.13;1710475;82;21183;-68
2021/01/21 09:52:16;;;;;;;57.38;30.45;;;;;;;-2.18;57.02;101470.41;1773115;80;21844;-62
2021/01/21 09:55:24;;;;;;;64.92;32.23;;;;;;;-2.19;56.74;101465.96;1812136;79;21869;-66
2021/01/21 09:58:32;;;;;;;55.12;30.23;;;;;;;-2.27;57.02;101456.08;1772422;81;21712;-67
2021/01/21 10:01:38;;;;;;;60.95;32.00;;;;;;;-2.20;57.02;101456.64;1736899;80;21222;-62
2021/01/21 10:04:44;;;;;;;64.87;33.85;;;;;;;-2.16;57.06;101457.80;1729179;81;21993;-62
2021/01/21 10:07:50;;;;;;;62.03;32.48;;;;;;;-2.13;56.96;101450.96;1701048;84;21223;-61
2021/01/21 10:11:00;;;;;;;67.87;34.05;;;;;;;-1.99;57.13;101455.67;1698885;81;21211;-61
2021/01/21 10:14:06;;;;;;;68.28;35.03;;;;;;;-1.75;56.99;101454.08;1700198;83;21235;-61
2021/01/21 10:17:12;;;;;;;63.48;35.05;;;;;;;-1.61;56.44;101446.70;1711335;83;21807;-61
2021/01/21 10:20:19;;;;;;;62.73;32.98;;;;;;;-1.47;56.35;101440.19;1677604;84;21880;-61
2021/01/21 10:23:25;;;;;;;73.47;36.08;;;;;;;-1.43;56.01;101436.43;1707055;83;21220;-61
2021/01/21 10:26:32;;;;;;;64.40;34.03;;;;;;;-1.52;56.16;101433.31;1707448;83;21803;-61
2021/01/21 10:29:38;;;;;;;70.65;36.45;;;;;;;-1.44;56.08;101431.13;1707109;83;21231;-63
2021/01/21 10:32:47;;;;;;;69.03;36.03;;;;;;;-1.65;56.23;101426.33;1707669;84;21216;-63
2021/01/21 10:35:53;;;;;;;63.68;33.45;;;;;;;-1.71;56.84;101419.42;1678387;85;21390;-62
2021/01/21 10:38:58;;;;;;;61.37;31.48;;;;;;;-1.56;56.96;101415.14;1686312;83;21307;-66
2021/01/21 10:42:06;;;;;;;60.43;33.02;;;;;;;-1.36;56.88;101416.86;1767799;80;21350;-67
2021/01/21 10:45:13;;;;;;;67.92;33.15;;;;;;;-1.40;56.71;101406.73;1767575;81;21343;-69
2021/01/21 10:48:18;;;;;;;63.78;35.33;;;;;;;-1.44;57.10;101409.66;1768814;80;21354;-68
2021/01/21 10:51:24;;;;;;;55.83;28.60;;;;;;;-1.43;57.48;101407.36;1702492;81;21694;-68
2021/01/21 10:54:30;;;;;;;57.67;31.37;;;;;;;-1.35;57.64;101407.39;1737437;82;21347;-70
2021/01/21 10:57:37;;;;;;;61.53;30.20;;;;;;;-1.32;57.94;101403.67;1699746;82;21232;-68
2021/01/21 11:00:43;;;;;;;55.10;29.48;;;;;;;-1.21;58.04;101404.88;1776107;80;21734;-67
2021/01/21 11:03:49;;;;;;;61.53;31.77;;;;;;;-1.18;57.95;101397.13;1744772;81;21378;-69
2021/01/21 11:06:54;;;;;;;62.45;31.15;;;;;;;-1.15;58.07;101389.80;1737423;81;21366;-69
2021/01/21 11:10:00;;;;;;;60.48;32.90;;;;;;;-1.02;58.12;101385.55;1731842;82;21306;-66
2021/01/21 11:13:08;;;;;;;57.48;30.85;;;;;;;-0.94;58.00;101387.36;1731860;82;21409;-67
2021/01/21 11:16:12;;;;;;;51.80;28.15;;;;;;;-0.91;58.00;101380.95;1761283;81;21330;-67
2021/01/21 11:19:18;;;;;;;55.78;30.05;;;;;;;-0.86;58.20;101373.06;1751973;80;21181;-67
2021/01/21 11:22:24;;;;;;;54.60;30.43;;;;;;;-0.80;58.40;101365.13;1746915;81;21763;-68
2021/01/21 11:25:32;;;;;;;52.53;28.07;;;;;;;-0.67;58.52;101353.67;1712028;81;21299;-69
2021/01/21 11:28:38;;;;;;;48.20;27.70;;;;;;;-0.45;58.28;101353.38;1630271;86;21235;-67
2021/01/21 11:31:43;;;;;;;49.23;26.30;;;;;;;-0.44;58.09;101343.88;1665225;86;21212;-68
2021/01/21 11:34:51;;;;;;;55.85;28.52;;;;;;;-0.55;58.20;101345.41;1638203;86;21375;-67
2021/01/21 11:37:58;;;;;;;47.10;27.20;;;;;;;-0.54;58.65;101339.09;1730146;82;21329;-68
2021/01/21 11:41:03;;;;;;;49.90;27.75;;;;;;;-0.42;58.89;101342.45;1699063;83;21243;-68
2021/01/21 11:44:12;;;;;;;42.78;23.90;;;;;;;-0.29;59.25;101335.46;1707025;83;21591;-68
2021/01/21 11:47:22;;;;;;;43.68;24.65;;;;;;;-0.19;59.43;101328.63;1720432;82;21273;-67
2021/01/21 11:50:34;;;;;;;42.30;24.50;;;;;;;-0.18;59.66;101329.89;1720616;83;21381;-69
2021/01/21 11:53:40;;;;;;;43.70;25.55;;;;;;;-0.15;59.97;101331.53;1715814;83;21883;-67
2021/01/21 11:56:46;;;;;;;43.50;23.73;;;;;;;0.03;60.20;101335.02;1671770;84;21223;-68
2021/01/21 11:59:53;;;;;;;36.60;21.62;;;;;;;0.23;60.12;101342.36;1693459;83;21238;-68
2021/01/21 12:03:03;;;;;;;40.08;22.73;;;;;;;0.31;59.97;101338.75;1717288;83;21725;-68
2021/01/21 12:06:09;;;;;;;41.68;21.82;;;;;;;0.26;60.20;101340.83;1706985;83;21233;-68
2021/01/21 12:09:17;;;;;;;40.60;23.27;;;;;;;0.21;60.52;101332.64;1704642;83;21917;-70
2021/01/21 12:12:25;;;;;;;44.40;25.52;;;;;;;0.13;61.13;101333.05;1716413;83;21386;-67
2021/01/21 12:15:30;;;;;;;44.27;23.60;;;;;;;0.19;61.58;101330.50;1717950;83;21252;-70
2021/01/21 12:18:39;;;;;;;40.05;21.50;;;;;;;0.20;61.96;101329.54;1718183;83;21401;-68
2021/01/21 12:21:50;;;;;;;34.78;19.62;;;;;;;0.33;62.37;101333.27;1713566;79;21378;-67
2021/01/21 12:24:53;;;;;;;38.28;21.37;;;;;;;0.41;62.54;101329.20;1643105;86;21247;-62
2021/01/21 12:28:00;;;;;;;35.35;20.25;;;;;;;0.43;62.83;101333.14;1712946;81;21726;-61
2021/01/21 12:31:06;;;;;;;40.83;19.37;;;;;;;0.43;63.28;101322.38;1629446;86;21962;-63
2021/01/21 12:34:12;;;;;;;38.75;20.52;;;;;;;0.54;63.58;101323.96;1718527;81;21223;-61
2021/01/21 12:37:21;;;;;;;34.20;17.55;;;;;;;0.66;63.68;101317.84;1684267;84;21228;-61
2021/01/21 12:40:27;;;;;;;38.53;19.67;;;;;;;0.69;63.80;101313.14;1684175;84;21741;-62
2021/01/21 12:43:33;;;;;;;37.63;20.00;;;;;;;0.68;64.05;101314.59;1675593;84;21710;-62
2021/01/21 12:46:43;;;;;;;33.88;18.50;;;;;;;0.64;64.43;101316.59;1719004;83;21223;-63
2021/01/21 12:49:48;;;;;;;36.95;18.30;;;;;;;0.66;64.79;101321.41;1717573;82;21243;-63
2021/01/21 12:53:01;;;;;;;36.17;18.90;;;;;;;0.70;65.06;101323.45;1649020;86;21972;-62
2021/01/21 12:56:07;;;;;;;34.30;18.32;;;;;;;0.69;65.29;101325.74;1719731;82;21361;-69
2021/01/21 12:59:16;;;;;;;39.75;22.45;;;;;;;0.74;65.56;101315.56;1717644;83;21307;-67
2021/01/21 13:02:26;;;;;;;55.90;27.52;;;;;;;0.76;65.77;101319.89;1717921;83;21275;-69
2021/01/21 13:05:31;;;;;;;48.15;24.20;;;;;;;0.78;65.99;101308.55;1717674;83;21260;-69
2021/01/21 13:08:49;;;;;;;34.08;18.80;;;;;;;0.83;66.14;101302.41;1718267;83;21836;-70
2021/01/21 13:11:57;;;;;;;39.38;25.23;;;;;;;0.88;66.33;101306.17;1682707;85;21234;-63
2021/01/21 13:15:03;;;;;;;39.35;22.60;;;;;;;0.91;66.39;101304.16;1695300;84;21811;-65
2021/01/21 13:18:10;;;;;;;37.58;20.35;;;;;;;0.91;66.50;101314.95;1684191;83;21696;-63
2021/01/21 13:21:19;;;;;;;39.15;20.02;;;;;;;0.93;66.62;101311.69;1693332;82;21357;-62
2021/01/21 13:24:25;;;;;;;35.95;20.52;;;;;;;0.92;66.80;101308.58;1729845;83;21251;-67
2021/01/21 13:27:45;;;;;;;38.42;20.37;;;;;;;0.95;66.93;101308.39;1700910;84;21256;-66
2021/01/21 13:30:51;;;;;;;42.27;19.73;;;;;;;0.98;67.13;101301.97;1727052;82;21236;-66
2021/01/21 13:34:00;;;;;;;38.17;21.50;;;;;;;0.92;67.20;101298.30;1733652;81;21208;-66
2021/01/21 13:37:12;;;;;;;50.05;25.02;;;;;;;0.68;67.63;101287.64;1741860;82;21350;-63
2021/01/21 13:40:26;;;;;;;42.73;23.38;;;;;;;0.53;68.21;101292.58;1707220;82;21411;-67
2021/01/21 13:43:44;;;;;;;53.63;27.40;;;;;;;0.56;68.64;101304.05;1701291;82;21524;-67
2021/01/21 13:46:54;;;;;;;49.38;27.10;;;;;;;0.59;68.93;101292.20;1707374;81;21244;-64
2021/01/21 13:50:01;;;;;;;51.42;27.70;;;;;;;0.63;69.09;101301.39;1711139;81;21252;-64
2021/01/21 13:53:07;;;;;;;42.95;23.45;;;;;;;0.67;69.33;101284.54;1707113;84;22067;-66
2021/01/21 13:56:20;;;;;;;38.63;21.02;;;;;;;0.69;69.39;101275.42;1688092;84;21216;-66
2021/01/21 13:59:24;;;;;;;39.75;19.55;;;;;;;0.67;69.69;101265.68;1709818;84;21820;-64
2021/01/21 14:02:31;;;;;;;43.75;21.52;;;;;;;0.72;69.96;101264.47;1702742;83;21205;-65
2021/01/21 14:05:44;;;;;;;46.92;23.20;;;;;;;0.74;70.07;101263.02;1682445;85;21232;-62
2021/01/21 14:08:58;;;;;;;37.33;18.92;;;;;;;0.73;70.32;101264.84;1716251;81;21216;-63
2021/01/21 14:12:02;;;;;;;37.73;19.80;;;;;;;0.77;70.52;101261.02;1694577;82;21383;-64
2021/01/21 14:15:07;;;;;;;39.20;19.90;;;;;;;0.78;70.63;101269.47;1690625;83;21482;-64
2021/01/21 14:18:13;;;;;;;39.50;20.20;;;;;;;0.79;70.80;101272.58;1720083;82;21553;-64